Terminal Aerodrome Forecast
Issued by NWS Louisville, KY

Home | Current Version | Previous Version | Text Only | Print | Product List | Glossary On
Versions: 1 2 3 4 5 6 7 8 9 10 11 12 13 14 15 16 17 18 19
000
FTUS43 KLMK 240746 AAB
TAFLEX
TAF AMD
KLEX 240746Z 2408/2506 VRB03KT 3SM BR SCT002
      TEMPO 2408/2411 00000KT 1/2SM FG VV002
     FM241200 27004KT P6SM SCT250
     FM241500 28011G17KT P6SM FEW050 SCT250
     FM250000 28005KT P6SM FEW250=

USA.gov is the U.S. government's official web portal to all federal, state and local government web resources and services.